Columbus, Ohio
Traffic Map
Current Weather Conditions
Columbus, Ohio
Overcast
Overcast
73°
Feels Like: 73°
Wind Chill: 73° Ceiling: 800
Heat Index: 73° Visibility: 10mi
Dew Point: 68° Wind: 3mph
Humidity: 84% Direction: 230° (SW)
Pressure: 30in Gusts: 0mph
Raw Report DataKCMH 010751Z 23003KT 10SM OVC008 23/20 A3000 RMK AO2 SLP153 T02280200
Traffic Incident Summary
Active as of:
Severity:
Category:
InformationThere was an issue retrieving the traffic information for this location. Please try a different location or try again shortly.
Advertisements
Track Severe Weather on mobile